Time;durP1;ratioP1;P1;durP2;ratioP2;P2;SDS_P1;SDS_P2;PMS_P1;PMS_P2;Temp;Humidity;BMP_temperature;BMP_pressure;BME280_temperature;BME280_humidity;BME280_pressure;Samples;Min_cycle;Max_cycle;Signal;HPM_P1;HPM_P2
2022/08/09 00:02:34;;;;;;;0.90;0.60;;;19.60;51.80;21.80;94418.00;;;;10427484;28;45268;-60
2022/08/09 00:07:56;;;;;;;0.90;0.60;;;19.60;51.80;21.80;94417.00;;;;10427484;28;45242;-61
2022/08/09 00:13:16;;;;;;;0.73;0.55;;;19.60;51.80;21.80;94396.00;;;;10427364;28;45163;-60
2022/08/09 00:18:38;;;;;;;0.95;0.60;;;19.40;51.70;21.80;94410.00;;;;10427447;28;45490;-60
2022/08/09 00:24:00;;;;;;;1.20;0.70;;;19.60;51.70;21.80;94400.00;;;;10426606;28;45384;-60
2022/08/09 00:29:20;;;;;;;0.88;0.68;;;19.60;51.60;21.80;94391.00;;;;10426758;28;45313;-60
2022/08/09 00:34:41;;;;;;;1.92;0.70;;;19.60;51.60;21.80;94401.00;;;;10427151;28;45761;-60
2022/08/09 00:40:04;;;;;;;1.00;0.60;;;19.60;51.70;21.80;94408.00;;;;10445932;28;45181;-60
2022/08/09 00:45:24;;;;;;;0.68;0.60;;;19.60;51.60;21.80;94408.00;;;;10433416;28;45184;-60
2022/08/09 00:50:45;;;;;;;0.60;0.60;;;19.60;51.70;21.80;94407.00;;;;10433732;28;45113;-60
2022/08/09 00:56:09;;;;;;;1.17;0.70;;;19.60;51.60;21.70;94399.00;;;;10432380;28;45236;-61
2022/08/09 01:01:35;;;;;;;1.23;0.70;;;19.60;51.60;21.70;94410.00;;;;10428803;28;45278;-60
2022/08/09 01:07:04;;;;;;;0.60;0.60;;;19.60;51.60;21.70;94418.00;;;;10430774;28;45220;-60
2022/08/09 01:12:34;;;;;;;0.70;0.60;;;19.60;51.50;21.70;94416.00;;;;10432582;28;45311;-60
2022/08/09 01:18:01;;;;;;;0.95;0.60;;;19.60;51.50;21.70;94413.00;;;;10442173;28;45235;-60
2022/08/09 01:23:40;;;;;;;0.55;0.50;;;19.60;51.60;21.70;94403.00;;;;10437328;28;45496;-61
2022/08/09 01:29:05;;;;;;;1.00;0.90;;;19.60;51.50;21.70;94410.00;;;;10432034;28;45216;-61
2022/08/09 01:34:27;;;;;;;0.60;0.60;;;19.60;51.60;21.70;94413.00;;;;10431441;28;45186;-60
2022/08/09 01:39:51;;;;;;;1.00;0.70;;;19.60;51.60;21.70;94398.00;;;;10430446;28;45174;-61
2022/08/09 01:45:13;;;;;;;0.70;0.70;;;19.60;51.50;21.70;94399.00;;;;10431983;28;45515;-60
2022/08/09 01:50:35;;;;;;;0.75;0.63;;;19.60;51.50;21.70;94415.00;;;;10430744;28;45373;-60
2022/08/09 01:55:57;;;;;;;0.77;0.60;;;19.60;51.50;21.70;94403.00;;;;10431017;28;45402;-61
2022/08/09 02:01:20;;;;;;;0.75;0.57;;;19.60;51.40;21.70;94422.00;;;;10431092;28;45147;-61
2022/08/09 02:12:23;;;;;;;0.95;0.60;;;19.60;51.30;21.70;94413.00;;;;10430818;28;45558;-60
2022/08/09 02:17:47;;;;;;;0.77;0.70;;;19.50;51.20;21.70;94412.00;;;;10439110;28;45293;-60
2022/08/09 02:23:14;;;;;;;0.50;0.50;;;19.50;51.90;21.70;94414.00;;;;10437108;28;45446;-61
2022/08/09 02:28:41;;;;;;;0.93;0.70;;;19.50;51.30;21.70;94408.00;;;;10430290;28;45268;-60
2022/08/09 02:34:12;;;;;;;0.65;0.60;;;19.50;51.20;21.70;94410.00;;;;10419749;28;45452;-60
2022/08/09 02:39:36;;;;;;;0.85;0.57;;;19.60;51.30;21.70;94405.00;;;;10428847;28;45365;-60
2022/08/09 02:45:02;;;;;;;0.82;0.60;;;19.50;51.10;21.70;94408.00;;;;10429504;28;45146;-60
2022/08/09 02:50:29;;;;;;;0.70;0.60;;;19.50;51.10;21.70;94412.00;;;;10429223;28;45153;-60
2022/08/09 02:55:51;;;;;;;0.50;0.50;;;19.50;51.10;21.60;94397.00;;;;10439070;28;45146;-60
2022/08/09 03:01:15;;;;;;;0.75;0.52;;;19.50;51.10;21.70;94414.00;;;;10415908;28;45268;-60
2022/08/09 03:06:39;;;;;;;0.82;0.63;;;19.50;51.00;21.60;94399.00;;;;10428902;28;45169;-60
2022/08/09 03:12:00;;;;;;;0.68;0.68;;;19.50;50.90;21.70;94390.00;;;;10429499;28;45341;-60
2022/08/09 03:17:23;;;;;;;1.05;0.70;;;19.50;51.40;21.60;94407.00;;;;10428599;28;45523;-60
2022/08/09 03:22:46;;;;;;;0.60;0.60;;;19.50;50.90;21.70;94412.00;;;;10428518;28;45238;-60
2022/08/09 03:28:07;;;;;;;0.55;0.55;;;19.50;50.80;21.60;94406.00;;;;10428183;28;45149;-60
2022/08/09 03:33:29;;;;;;;0.80;0.70;;;19.50;50.80;21.60;94400.00;;;;10428408;28;45510;-61
2022/08/09 03:38:51;;;;;;;0.60;0.60;;;19.50;50.70;21.60;94405.00;;;;10427351;28;45510;-60
2022/08/09 03:44:12;;;;;;;0.70;0.63;;;19.50;50.80;21.60;94402.00;;;;10427601;28;45177;-60
2022/08/09 03:49:34;;;;;;;0.70;0.70;;;19.50;50.80;21.60;94400.00;;;;10428088;28;45287;-59
2022/08/09 03:54:59;;;;;;;1.55;0.70;;;19.50;50.70;21.60;94423.00;;;;10435160;28;45331;-61
2022/08/09 04:00:20;;;;;;;1.02;0.68;;;19.50;50.70;21.60;94418.00;;;;10432513;28;45265;-61
2022/08/09 04:05:41;;;;;;;0.70;0.60;;;19.50;50.60;21.60;94412.00;;;;10427485;28;45425;-60
2022/08/09 04:11:04;;;;;;;0.50;0.50;;;19.50;50.50;21.60;94414.00;;;;10414503;28;45198;-61
2022/08/09 04:16:25;;;;;;;0.60;0.60;;;19.40;50.60;21.60;94403.00;;;;10434204;28;45452;-60
2022/08/09 04:21:45;;;;;;;0.82;0.60;;;19.40;50.50;21.60;94415.00;;;;10434912;28;45199;-60
2022/08/09 04:27:08;;;;;;;0.95;0.60;;;19.50;50.40;21.60;94409.00;;;;10434024;28;45515;-61
2022/08/09 04:32:29;;;;;;;1.15;0.60;;;19.40;50.50;21.60;94423.00;;;;10436123;28;45364;-61
2022/08/09 04:37:50;;;;;;;0.60;0.60;;;19.40;50.50;21.60;94422.00;;;;10445302;28;45544;-61
2022/08/09 04:43:11;;;;;;;0.60;0.60;;;19.40;50.40;21.60;94406.00;;;;10433518;28;45324;-61
2022/08/09 04:48:32;;;;;;;1.38;0.82;;;19.40;50.40;21.60;94426.00;;;;10434046;28;45213;-60
2022/08/09 04:53:52;;;;;;;0.55;0.50;;;19.40;50.40;21.60;94427.00;;;;10433101;28;45255;-59
2022/08/09 04:59:14;;;;;;;0.70;0.60;;;19.40;50.40;21.60;94435.00;;;;10432841;28;45264;-60
2022/08/09 05:04:35;;;;;;;1.35;0.60;;;19.40;50.50;21.60;94432.00;;;;10432816;28;45238;-60
2022/08/09 05:09:56;;;;;;;1.00;0.65;;;19.40;50.20;21.60;94443.00;;;;10432708;28;45247;-60
2022/08/09 05:15:18;;;;;;;0.73;0.57;;;19.40;50.40;21.60;94432.00;;;;10432708;28;45448;-60
2022/08/09 05:20:38;;;;;;;0.55;0.50;;;19.40;50.40;21.60;94439.00;;;;10432991;28;45198;-60
2022/08/09 05:25:59;;;;;;;0.90;0.60;;;19.40;50.40;21.60;94446.00;;;;10431069;28;45384;-60
2022/08/09 05:31:21;;;;;;;1.15;0.65;;;19.40;50.40;21.60;94451.00;;;;10432315;28;45134;-60
2022/08/09 05:36:41;;;;;;;0.60;0.60;;;19.40;50.40;21.60;94444.00;;;;10450292;28;45497;-61
2022/08/09 05:42:02;;;;;;;0.93;0.60;;;19.40;50.40;21.60;94443.00;;;;10421117;28;45279;-61
2022/08/09 05:47:26;;;;;;;0.85;0.60;;;19.40;50.60;21.60;94450.00;;;;10431130;28;45665;-60
2022/08/09 05:52:46;;;;;;;0.57;0.52;;;19.40;50.60;21.60;94464.00;;;;10431166;28;45392;-60
2022/08/09 05:58:07;;;;;;;0.68;0.63;;;19.40;50.70;21.60;94465.00;;;;10430085;28;45269;-61
2022/08/09 06:03:29;;;;;;;0.45;0.45;;;19.40;50.60;21.60;94475.00;;;;10429817;28;45269;-60
2022/08/09 06:08:50;;;;;;;0.70;0.70;;;19.40;50.70;21.60;94473.00;;;;10429864;28;45273;-60
2022/08/09 06:14:11;;;;;;;0.75;0.70;;;19.40;50.60;21.60;94485.00;;;;10430080;28;45135;-60
2022/08/09 06:19:33;;;;;;;0.50;0.50;;;19.40;50.70;21.60;94483.00;;;;10429140;28;45540;-60
2022/08/09 06:24:53;;;;;;;0.60;0.60;;;19.40;50.70;21.60;94485.00;;;;10429143;28;44645;-60
2022/08/09 06:30:14;;;;;;;0.60;0.60;;;19.40;50.70;21.60;94491.00;;;;10429785;28;45215;-61
2022/08/09 06:35:36;;;;;;;0.60;0.50;;;19.40;50.70;21.60;94488.00;;;;10443866;28;45175;-60
2022/08/09 06:40:57;;;;;;;0.52;0.50;;;19.40;50.80;21.60;94480.00;;;;10428231;28;45221;-60
2022/08/09 06:46:18;;;;;;;0.50;0.50;;;19.40;50.90;21.60;94501.00;;;;10428071;28;45237;-60
2022/08/09 06:51:39;;;;;;;0.63;0.50;;;19.40;50.90;21.50;94484.00;;;;10428383;28;45424;-60
2022/08/09 06:57:00;;;;;;;0.73;0.70;;;19.40;49.30;21.50;94495.00;;;;10428747;28;45267;-59
2022/08/09 07:02:20;;;;;;;0.55;0.50;;;19.40;49.20;21.40;94494.00;;;;10428810;28;45161;-60
2022/08/09 07:07:43;;;;;;;1.08;0.60;;;19.40;49.30;21.50;94501.00;;;;10428074;28;45217;-63
2022/08/09 07:13:03;;;;;;;0.70;0.38;;;19.40;49.50;21.50;94501.00;;;;10428161;28;45199;-61
2022/08/09 07:18:24;;;;;;;0.68;0.60;;;19.40;49.40;21.40;94488.00;;;;10428590;28;45204;-59
2022/08/09 07:23:46;;;;;;;0.50;0.50;;;19.40;49.50;21.40;94493.00;;;;10427930;28;45289;-61
2022/08/09 07:29:06;;;;;;;0.80;0.55;;;19.30;49.80;21.40;94486.00;;;;10427781;28;45165;-60
2022/08/09 07:34:27;;;;;;;1.35;0.70;;;19.30;49.60;21.40;94494.00;;;;10443434;28;45371;-61
2022/08/09 07:39:49;;;;;;;1.45;0.60;;;19.40;49.70;21.50;94500.00;;;;10424521;28;45287;-62
2022/08/09 07:45:11;;;;;;;0.75;0.60;;;19.40;49.80;21.50;94513.00;;;;10427754;28;45170;-64
2022/08/09 07:50:31;;;;;;;0.50;0.50;;;19.30;49.80;21.50;94511.00;;;;10431328;28;45169;-62
2022/08/09 07:55:53;;;;;;;1.27;0.70;;;19.30;50.10;21.50;94518.00;;;;10430326;28;45285;-61
2022/08/09 08:01:14;;;;;;;0.75;0.52;;;19.30;50.30;21.50;94517.00;;;;10434832;28;45252;-58
2022/08/09 08:06:35;;;;;;;0.63;0.43;;;19.40;50.40;21.50;94512.00;;;;10434397;28;45464;-61
2022/08/09 08:11:57;;;;;;;0.68;0.40;;;19.30;50.50;21.50;94518.00;;;;10431775;28;45234;-64
2022/08/09 08:17:17;;;;;;;1.33;0.65;;;19.30;50.70;21.50;94521.00;;;;10427318;28;45279;-61
2022/08/09 08:22:38;;;;;;;0.47;0.47;;;19.40;50.80;21.50;94508.00;;;;10433963;28;45168;-60
2022/08/09 08:28:00;;;;;;;0.60;0.50;;;19.40;50.90;21.50;94505.00;;;;10434306;28;45240;-61
2022/08/09 08:33:21;;;;;;;0.55;0.50;;;19.40;50.90;21.50;94514.00;;;;10439947;28;45432;-60
2022/08/09 08:38:43;;;;;;;0.47;0.47;;;19.40;50.70;21.50;94519.00;;;;10458782;28;45148;-63
2022/08/09 08:44:05;;;;;;;1.90;0.70;;;19.40;50.90;21.50;94500.00;;;;10434283;28;45153;-60
2022/08/09 08:49:26;;;;;;;0.60;0.60;;;19.40;51.00;21.50;94517.00;;;;10432707;28;45230;-64
2022/08/09 08:54:48;;;;;;;0.73;0.50;;;19.40;51.10;21.50;94516.00;;;;10432797;28;45223;-61
2022/08/09 09:00:12;;;;;;;0.88;0.60;;;19.40;50.90;21.50;94521.00;;;;10432459;28;44967;-61
2022/08/09 09:05:33;;;;;;;0.75;0.50;;;19.40;51.10;21.50;94527.00;;;;10432881;28;45447;-62
2022/08/09 09:10:55;;;;;;;0.60;0.60;;;19.40;51.10;21.50;94536.00;;;;10432445;28;45180;-59
2022/08/09 09:16:17;;;;;;;0.50;0.50;;;19.40;51.00;21.60;94518.00;;;;10432495;28;45273;-63
2022/08/09 09:22:04;;;;;;;0.77;0.60;;;19.40;51.00;21.50;94510.00;;;;10432336;28;45256;-62
2022/08/09 09:27:27;;;;;;;0.50;0.50;;;19.40;51.20;21.60;94513.00;;;;10419843;28;45229;-62
2022/08/09 09:33:03;;;;;;;0.50;0.50;;;19.40;51.10;21.50;94508.00;;;;10433752;28;45407;-64
2022/08/09 09:38:23;;;;;;;1.50;0.50;;;19.40;51.20;21.60;94541.00;;;;10445557;28;45518;-61
2022/08/09 09:43:45;;;;;;;0.43;0.43;;;19.40;51.20;21.50;94536.00;;;;10430446;28;45193;-62
2022/08/09 09:49:10;;;;;;;0.82;0.55;;;19.40;51.20;21.60;94531.00;;;;10430750;28;45232;-61
2022/08/09 09:54:42;;;;;;;0.50;0.50;;;19.40;51.20;21.60;94540.00;;;;10429695;28;45254;-60
2022/08/09 10:00:03;;;;;;;1.35;0.73;;;19.40;51.00;21.60;94547.00;;;;10430168;28;45199;-63
2022/08/09 10:05:25;;;;;;;0.60;0.57;;;19.50;51.10;21.60;94530.00;;;;10431097;28;45706;-60
2022/08/09 10:10:46;;;;;;;1.30;0.60;;;19.40;51.00;21.60;94537.00;;;;10430449;28;45337;-60
2022/08/09 10:16:07;;;;;;;0.50;0.40;;;19.40;51.00;21.60;94534.00;;;;10445307;28;45182;-60
2022/08/09 10:21:29;;;;;;;1.23;0.63;;;19.50;51.00;21.60;94552.00;;;;10430569;28;45300;-60
2022/08/09 10:26:54;;;;;;;0.85;0.50;;;19.50;50.90;21.60;94550.00;;;;10429717;28;45301;-63
2022/08/09 10:32:15;;;;;;;0.70;0.40;;;19.50;50.80;21.60;94553.00;;;;10430166;28;45221;-62
2022/08/09 10:37:38;;;;;;;1.38;0.73;;;19.50;50.90;21.60;94557.00;;;;10429897;28;45232;-61
2022/08/09 10:42:59;;;;;;;2.65;1.08;;;19.50;50.90;21.60;94535.00;;;;10430015;28;45221;-63
2022/08/09 10:48:29;;;;;;;2.20;0.82;;;19.50;51.00;21.70;94544.00;;;;10429453;28;45212;-62
2022/08/09 10:54:00;;;;;;;2.58;0.80;;;19.50;51.10;21.70;94541.00;;;;10428926;28;45231;-62
2022/08/09 10:59:31;;;;;;;1.65;0.80;;;19.50;51.10;21.70;94536.00;;;;10426099;28;45300;-60
2022/08/09 11:05:14;;;;;;;3.35;1.10;;;19.60;51.10;21.70;94536.00;;;;10419250;28;45156;-60
2022/08/09 11:10:55;;;;;;;2.30;1.10;;;19.50;51.10;21.70;94532.00;;;;10426986;28;45227;-60
2022/08/09 11:16:36;;;;;;;3.15;1.10;;;19.60;51.00;21.70;94534.00;;;;10443842;28;45296;-62
2022/08/09 11:22:00;;;;;;;2.15;1.10;;;19.60;51.00;21.70;94546.00;;;;10428071;28;45219;-61
2022/08/09 11:27:35;;;;;;;2.00;1.10;;;19.50;51.00;21.70;94541.00;;;;10428930;28;45196;-61
2022/08/09 11:33:03;;;;;;;2.70;1.00;;;19.50;51.00;21.70;94541.00;;;;10429945;28;45255;-60
2022/08/09 11:38:27;;;;;;;2.15;0.88;;;19.50;50.90;21.70;94525.00;;;;10428810;28;45197;-61
2022/08/09 11:43:51;;;;;;;1.65;0.90;;;19.60;50.90;21.70;94543.00;;;;10426770;28;45207;-61
2022/08/09 11:49:12;;;;;;;1.70;0.90;;;19.60;50.80;21.70;94531.00;;;;10427320;28;45186;-61
2022/08/09 11:54:33;;;;;;;1.77;1.00;;;19.60;50.90;21.70;94532.00;;;;10427147;28;45243;-61
2022/08/09 11:59:55;;;;;;;3.03;1.00;;;19.60;50.90;21.70;94532.00;;;;10426947;28;45263;-60
2022/08/09 12:05:16;;;;;;;1.42;0.70;;;19.60;50.90;21.70;94535.00;;;;10426647;28;45209;-61
2022/08/09 12:10:42;;;;;;;2.05;0.70;;;19.60;50.70;21.70;94526.00;;;;10426631;28;45253;-60
2022/08/09 12:16:08;;;;;;;4.05;0.95;;;19.60;50.80;21.70;94517.00;;;;10441570;28;45201;-61
2022/08/09 12:21:34;;;;;;;2.75;0.82;;;19.60;50.70;21.70;94522.00;;;;10426900;28;45259;-61
2022/08/09 12:26:58;;;;;;;1.38;0.60;;;19.60;50.70;21.70;94523.00;;;;10426263;28;45393;-61
2022/08/09 12:32:26;;;;;;;2.10;0.93;;;19.60;50.60;21.80;94524.00;;;;10415904;28;45218;-61
2022/08/09 12:37:46;;;;;;;1.30;0.70;;;19.60;50.60;21.80;94510.00;;;;10433197;28;45256;-60
2022/08/09 12:43:07;;;;;;;2.78;0.80;;;19.60;50.60;21.80;94512.00;;;;10432691;28;45262;-61
2022/08/09 12:48:30;;;;;;;1.13;0.63;;;19.60;50.60;21.80;94520.00;;;;10432694;28;45244;-61
2022/08/09 12:53:59;;;;;;;1.48;0.70;;;19.60;50.50;21.80;94504.00;;;;10432744;28;45103;-61
2022/08/09 12:59:21;;;;;;;1.13;0.63;;;19.60;50.50;21.80;94511.00;;;;10430311;28;45194;-62
2022/08/09 13:05:00;;;;;;;1.35;0.55;;;19.70;50.20;21.80;94502.00;;;;10420952;28;45210;-61
2022/08/09 13:10:22;;;;;;;2.03;0.80;;;19.80;49.90;21.80;94496.00;;;;10432293;28;45301;-60
2022/08/09 13:15:57;;;;;;;1.92;0.70;;;19.80;50.00;21.90;94499.00;;;;10440717;28;45142;-61
2022/08/09 13:21:22;;;;;;;0.77;0.60;;;19.80;50.00;21.90;94511.00;;;;10431520;28;45465;-61
2022/08/09 13:26:46;;;;;;;1.00;0.65;;;19.80;49.80;21.90;94508.00;;;;10431591;28;45181;-60
2022/08/09 13:32:07;;;;;;;1.15;0.73;;;19.80;49.90;22.00;94505.00;;;;10431502;28;45293;-60
2022/08/09 13:37:31;;;;;;;1.23;0.60;;;19.90;50.40;22.00;94489.00;;;;10430395;28;45181;-59
2022/08/09 13:42:51;;;;;;;1.23;0.60;;;19.80;50.40;22.00;94480.00;;;;10431504;28;45206;-61
2022/08/09 13:48:12;;;;;;;0.75;0.50;;;19.90;50.40;22.00;94496.00;;;;10428987;28;45276;-60
2022/08/09 13:53:34;;;;;;;2.63;0.45;;;19.90;50.40;22.00;94485.00;;;;10439163;28;45351;-60
2022/08/09 13:58:54;;;;;;;0.95;0.50;;;19.90;50.30;22.00;94468.00;;;;10430670;28;45308;-60
2022/08/09 14:04:15;;;;;;;1.33;0.60;;;19.90;50.10;22.00;94474.00;;;;10430222;28;45160;-60
2022/08/09 14:09:37;;;;;;;1.15;0.60;;;19.90;50.10;22.10;94464.00;;;;10430570;28;45304;-61
2022/08/09 14:14:58;;;;;;;1.20;0.45;;;19.90;49.90;22.10;94467.00;;;;10445538;28;45319;-60
2022/08/09 14:20:19;;;;;;;0.93;0.60;;;19.90;49.60;22.10;94459.00;;;;10430393;28;45224;-61
2022/08/09 14:25:40;;;;;;;0.60;0.60;;;19.90;49.50;22.10;94469.00;;;;10429678;28;45200;-60
2022/08/09 14:31:01;;;;;;;1.45;0.50;;;19.90;49.40;22.10;94466.00;;;;10430195;28;45218;-60
2022/08/09 14:36:22;;;;;;;0.85;0.60;;;19.90;49.30;22.10;94470.00;;;;10428984;28;45300;-61
2022/08/09 14:41:43;;;;;;;1.08;0.55;;;20.00;49.40;22.10;94460.00;;;;10435118;28;45297;-60
2022/08/09 14:47:04;;;;;;;0.60;0.60;;;20.00;49.10;22.10;94469.00;;;;10429510;28;45252;-61
2022/08/09 14:52:25;;;;;;;0.85;0.70;;;20.00;49.40;22.10;94467.00;;;;10435161;28;45206;-61
2022/08/09 14:57:46;;;;;;;0.90;0.60;;;20.00;49.40;22.10;94472.00;;;;10429819;28;45315;-61
2022/08/09 15:03:09;;;;;;;1.00;0.60;;;20.00;49.40;22.20;94454.00;;;;10424611;28;45272;-60
2022/08/09 15:08:29;;;;;;;0.60;0.60;;;20.10;49.40;22.20;94467.00;;;;10435327;28;45302;-64
2022/08/09 15:13:51;;;;;;;1.25;0.60;;;20.10;49.40;22.20;94461.00;;;;10434406;28;45156;-61
2022/08/09 15:19:12;;;;;;;2.20;0.63;;;20.10;49.40;22.20;94463.00;;;;10422870;28;45199;-61
2022/08/09 15:24:33;;;;;;;1.25;0.70;;;20.10;49.50;22.20;94463.00;;;;10434199;28;45192;-62
2022/08/09 15:29:55;;;;;;;0.75;0.50;;;20.10;49.30;22.20;94467.00;;;;10434389;28;45184;-61
2022/08/09 15:35:16;;;;;;;0.90;0.70;;;20.10;49.40;22.20;94444.00;;;;10434592;28;45198;-61
2022/08/09 15:40:37;;;;;;;1.50;0.70;;;20.20;48.90;22.30;94453.00;;;;10434669;28;45268;-63
2022/08/09 15:45:58;;;;;;;0.95;0.50;;;20.20;49.10;22.30;94448.00;;;;10433953;28;45193;-62
2022/08/09 15:51:19;;;;;;;1.40;0.60;;;20.20;49.10;22.30;94451.00;;;;10441575;28;45292;-61
2022/08/09 15:56:39;;;;;;;0.70;0.55;;;20.20;49.10;22.30;94449.00;;;;10418581;28;45224;-61
2022/08/09 16:02:01;;;;;;;1.10;0.60;;;20.20;49.10;22.30;94429.00;;;;10430900;28;45333;-62
2022/08/09 16:07:22;;;;;;;1.23;0.57;;;20.30;49.00;22.30;94451.00;;;;10443703;28;45284;-62
2022/08/09 16:12:43;;;;;;;1.95;0.60;;;20.20;49.10;22.30;94435.00;;;;10427041;28;45220;-62
2022/08/09 16:18:07;;;;;;;1.08;0.50;;;20.30;49.10;22.30;94448.00;;;;10434970;28;45439;-61
2022/08/09 16:23:28;;;;;;;0.98;0.68;;;20.30;49.00;22.40;94447.00;;;;10434540;28;45461;-61
2022/08/09 16:28:48;;;;;;;0.60;0.50;;;20.20;48.90;22.30;94448.00;;;;10434923;28;45211;-61
2022/08/09 16:34:10;;;;;;;1.48;0.55;;;20.20;48.90;22.30;94428.00;;;;10434752;28;45256;-61
2022/08/09 16:39:31;;;;;;;0.85;0.52;;;20.20;48.90;22.30;94438.00;;;;10434430;28;45255;-61
2022/08/09 16:44:52;;;;;;;0.90;0.63;;;20.20;48.90;22.30;94438.00;;;;10433637;28;45201;-61
2022/08/09 16:50:14;;;;;;;0.70;0.60;;;20.20;48.80;22.30;94423.00;;;;10433061;28;45220;-60
2022/08/09 16:55:35;;;;;;;0.63;0.52;;;20.20;48.70;22.30;94436.00;;;;10440783;28;45156;-62
2022/08/09 17:00:56;;;;;;;0.80;0.50;;;20.20;48.60;22.30;94435.00;;;;10430756;28;45151;-60
2022/08/09 17:06:18;;;;;;;1.83;0.60;;;20.20;48.60;22.30;94436.00;;;;10416173;28;45185;-60
2022/08/09 17:11:39;;;;;;;0.80;0.60;;;20.20;48.50;22.30;94434.00;;;;10430712;28;45276;-60
2022/08/09 17:17:02;;;;;;;0.50;0.50;;;20.20;48.40;22.30;94421.00;;;;10430862;28;45260;-62
2022/08/09 17:22:24;;;;;;;0.90;0.68;;;20.20;48.40;22.30;94443.00;;;;10428635;28;45270;-60
2022/08/09 17:27:45;;;;;;;0.98;0.70;;;20.20;48.40;22.20;94451.00;;;;10430949;28;45447;-60
2022/08/09 17:33:06;;;;;;;0.90;0.52;;;20.10;48.60;22.20;94434.00;;;;10434515;28;45232;-61
2022/08/09 17:38:27;;;;;;;0.77;0.52;;;20.20;48.40;22.30;94455.00;;;;10439137;28;45366;-60
2022/08/09 17:43:48;;;;;;;1.45;0.88;;;20.20;48.40;22.30;94441.00;;;;10432490;28;45313;-60
2022/08/09 17:49:08;;;;;;;1.10;0.65;;;20.20;48.90;22.30;94462.00;;;;10436087;28;45432;-67
2022/08/09 17:54:30;;;;;;;1.90;0.80;;;20.20;48.90;22.30;94457.00;;;;10449144;28;45519;-62
2022/08/09 17:59:51;;;;;;;1.40;0.70;;;20.20;48.60;22.30;94467.00;;;;10450510;28;45460;-61
2022/08/09 18:05:11;;;;;;;1.45;0.75;;;20.20;48.60;22.30;94484.00;;;;10437632;28;45220;-62
2022/08/09 18:10:33;;;;;;;2.65;0.60;;;20.20;48.60;22.30;94476.00;;;;10427570;28;45247;-62
2022/08/09 18:15:54;;;;;;;1.38;0.65;;;20.20;48.80;22.30;94479.00;;;;10429163;28;45624;-62
2022/08/09 18:21:15;;;;;;;1.52;0.55;;;20.20;48.80;22.30;94477.00;;;;10428879;28;45245;-62
2022/08/09 18:26:37;;;;;;;1.67;0.70;;;20.10;48.80;22.30;94476.00;;;;10428231;28;45303;-62
2022/08/09 18:31:58;;;;;;;0.80;0.68;;;20.10;48.90;22.30;94484.00;;;;10432461;28;45296;-61
2022/08/09 18:37:19;;;;;;;1.00;0.60;;;20.10;49.00;22.20;94497.00;;;;10427875;28;45303;-60
2022/08/09 18:42:41;;;;;;;1.02;0.70;;;20.10;48.90;22.20;94499.00;;;;10431202;28;45240;-62
2022/08/09 18:48:02;;;;;;;1.10;0.70;;;20.10;49.00;22.20;94501.00;;;;10433166;28;45306;-61
2022/08/09 18:53:23;;;;;;;0.68;0.60;;;20.00;49.00;22.20;94503.00;;;;10430466;28;45247;-61
2022/08/09 18:58:45;;;;;;;1.05;0.50;;;20.00;48.90;22.20;94503.00;;;;10424565;28;45389;-61
2022/08/09 19:04:07;;;;;;;0.88;0.60;;;20.10;48.90;22.20;94505.00;;;;10428210;28;45232;-59
2022/08/09 19:09:28;;;;;;;0.95;0.60;;;20.00;48.80;22.20;94498.00;;;;10414645;28;45194;-59
2022/08/09 19:14:50;;;;;;;1.27;0.60;;;20.00;48.90;22.20;94517.00;;;;10422438;28;45249;-59
2022/08/09 19:20:12;;;;;;;1.08;0.68;;;20.00;49.10;22.20;94505.00;;;;10427669;28;45313;-60
2022/08/09 19:25:32;;;;;;;1.08;0.70;;;20.00;49.10;22.20;94510.00;;;;10426984;28;45250;-59
2022/08/09 19:30:54;;;;;;;1.13;0.55;;;20.00;49.10;22.20;94514.00;;;;10426364;28;45272;-60
2022/08/09 19:36:19;;;;;;;0.40;0.40;;;20.00;49.30;22.20;94515.00;;;;10425956;28;45250;-60
2022/08/09 19:41:39;;;;;;;0.57;0.57;;;20.00;49.30;22.10;94521.00;;;;10426695;28;45216;-60
2022/08/09 19:47:01;;;;;;;0.90;0.60;;;20.00;49.40;22.10;94513.00;;;;10426548;28;45260;-59
2022/08/09 19:52:22;;;;;;;1.02;0.70;;;20.00;49.40;22.10;94520.00;;;;10426865;28;45172;-59
2022/08/09 19:57:42;;;;;;;1.17;0.70;;;20.00;49.40;22.10;94515.00;;;;10411881;28;1062288;-60
2022/08/09 20:03:05;;;;;;;0.55;0.52;;;19.90;49.30;22.10;94534.00;;;;10429784;28;45140;-59
2022/08/09 20:08:25;;;;;;;1.15;0.70;;;19.90;49.10;22.10;94516.00;;;;10423356;28;45559;-60
2022/08/09 20:13:46;;;;;;;1.00;0.50;;;19.90;49.20;22.10;94525.00;;;;10421148;28;45239;-59
2022/08/09 20:19:08;;;;;;;0.60;0.55;;;19.90;49.00;22.10;94518.00;;;;10413515;28;45234;-59
2022/08/09 20:24:30;;;;;;;2.05;0.50;;;19.90;49.10;22.10;94525.00;;;;10427424;28;45243;-61
2022/08/09 20:29:51;;;;;;;0.60;0.52;;;19.90;49.00;22.00;94524.00;;;;10424929;28;45511;-62
2022/08/09 20:35:13;;;;;;;1.15;0.60;;;19.90;49.10;22.00;94522.00;;;;10425695;28;45311;-60
2022/08/09 20:40:33;;;;;;;0.75;0.50;;;19.80;49.00;22.00;94531.00;;;;10420064;28;45275;-61
2022/08/09 20:45:54;;;;;;;0.50;0.40;;;19.80;49.00;22.00;94525.00;;;;10420726;28;45239;-61
2022/08/09 20:51:22;;;;;;;0.40;0.40;;;19.80;49.00;22.00;94538.00;;;;10424391;28;45245;-61
2022/08/09 20:56:43;;;;;;;1.15;0.60;;;19.80;48.90;22.00;94542.00;;;;10454550;28;45220;-60
2022/08/09 21:02:03;;;;;;;0.60;0.52;;;19.80;48.90;22.00;94536.00;;;;10432683;28;45474;-61
2022/08/09 21:07:25;;;;;;;0.43;0.43;;;19.80;48.90;22.00;94526.00;;;;10432565;28;45356;-60
2022/08/09 21:12:46;;;;;;;0.77;0.60;;;19.80;48.70;22.00;94527.00;;;;10432482;28;45264;-60
2022/08/09 21:18:06;;;;;;;0.98;0.50;;;19.80;48.70;22.00;94518.00;;;;10430559;28;45199;-60
2022/08/09 21:23:28;;;;;;;0.60;0.55;;;19.80;48.50;22.00;94524.00;;;;10431888;28;45155;-60
2022/08/09 21:28:48;;;;;;;0.50;0.50;;;19.80;48.20;22.00;94516.00;;;;10431789;28;45491;-60
2022/08/09 21:34:09;;;;;;;0.95;0.38;;;19.80;47.90;22.00;94514.00;;;;10447574;28;45202;-60
2022/08/09 21:39:31;;;;;;;0.60;0.50;;;19.80;48.00;21.90;94517.00;;;;10432418;28;45152;-60
2022/08/09 21:44:51;;;;;;;0.80;0.60;;;19.80;47.90;22.00;94515.00;;;;10431124;28;45185;-60
2022/08/09 21:50:12;;;;;;;0.73;0.60;;;19.80;47.90;21.90;94516.00;;;;10431352;28;45185;-60
2022/08/09 21:55:34;;;;;;;0.93;0.52;;;19.80;47.80;21.90;94506.00;;;;10430707;28;45321;-60
2022/08/09 22:00:54;;;;;;;0.50;0.43;;;19.80;47.90;21.90;94518.00;;;;10431032;28;45217;-60
2022/08/09 22:06:15;;;;;;;1.35;0.55;;;19.80;47.70;21.90;94498.00;;;;10429071;28;45157;-60
2022/08/09 22:11:37;;;;;;;1.90;0.60;;;19.80;47.80;21.90;94500.00;;;;10430578;28;45126;-60
2022/08/09 22:16:57;;;;;;;0.60;0.50;;;19.80;47.80;21.90;94502.00;;;;10429287;28;45149;-60
2022/08/09 22:22:18;;;;;;;1.83;0.60;;;19.80;47.60;21.90;94494.00;;;;10431329;28;45130;-60
2022/08/09 22:27:41;;;;;;;0.63;0.50;;;19.80;47.40;21.90;94485.00;;;;10429297;28;45414;-60
2022/08/09 22:33:02;;;;;;;1.20;0.60;;;19.80;46.90;21.90;94495.00;;;;10444787;28;45276;-60
2022/08/09 22:38:22;;;;;;;0.55;0.43;;;19.80;46.90;21.90;94491.00;;;;10429198;28;45159;-61
2022/08/09 22:43:45;;;;;;;0.98;0.50;;;19.70;46.70;21.90;94496.00;;;;10429284;28;45267;-60
2022/08/09 22:49:06;;;;;;;1.15;0.50;;;19.70;46.70;21.90;94502.00;;;;10428925;28;45486;-61
2022/08/09 22:54:26;;;;;;;0.52;0.50;;;19.70;46.80;21.80;94480.00;;;;10427510;28;45153;-60
2022/08/09 22:59:48;;;;;;;1.30;0.40;;;19.70;46.80;21.90;94492.00;;;;10429441;28;45467;-61
2022/08/09 23:05:09;;;;;;;1.40;0.60;;;19.70;46.50;21.90;94481.00;;;;10434853;28;45261;-60
2022/08/09 23:10:31;;;;;;;0.90;0.60;;;19.70;46.50;21.90;94480.00;;;;10430559;28;45265;-60
2022/08/09 23:15:53;;;;;;;0.60;0.50;;;19.70;46.50;21.80;94479.00;;;;10427173;28;45189;-60
2022/08/09 23:21:15;;;;;;;0.47;0.40;;;19.70;46.50;21.80;94471.00;;;;10428247;28;45258;-61
2022/08/09 23:26:37;;;;;;;0.73;0.50;;;19.70;46.50;21.80;94471.00;;;;10428186;28;45298;-60
2022/08/09 23:31:59;;;;;;;1.40;0.60;;;19.70;46.60;21.80;94473.00;;;;10424767;28;45142;-61
2022/08/09 23:37:20;;;;;;;0.82;0.40;;;19.70;46.50;21.80;94460.00;;;;10435086;28;45305;-60
2022/08/09 23:42:40;;;;;;;1.35;0.40;;;19.70;46.30;21.80;94473.00;;;;10427578;28;45180;-60